Time;durP1;ratioP1;P1;durP2;ratioP2;P2;SDS_P1;SDS_P2;PMS_P1;PMS_P2;Temp;Humidity;BMP_temperature;BMP_pressure;BME280_temperature;BME280_humidity;BME280_pressure;Samples;Min_cycle;Max_cycle;Signal;HPM_P1;HPM_P2
2023/10/20 00:00:39;;;;;;;42.05;27.30;;;;;;;-145.63;61.73;39397.78;5042278;28;20316;-67
2023/10/20 00:03:05;;;;;;;35.10;25.92;;;;;;;-145.63;61.68;39497.53;5042285;28;20109;-67
2023/10/20 00:05:30;;;;;;;37.22;24.52;;;;;;;-145.63;61.62;39378.22;5042215;28;20032;-69
2023/10/20 00:07:56;;;;;;;39.03;26.30;;;;;;;-145.63;61.40;39411.47;5042275;28;20213;-70
2023/10/20 00:10:22;;;;;;;36.45;25.48;;;;;;;-145.63;61.74;39372.34;5042273;28;20079;-69
2023/10/20 00:12:47;;;;;;;36.25;25.40;;;;;;;-145.63;61.39;39380.19;5042046;28;20029;-69
2023/10/20 00:15:17;;;;;;;36.42;25.30;;;;;;;-145.63;61.37;39388.00;5041989;28;20217;-69
2023/10/20 00:17:43;;;;;;;35.22;25.48;;;;;;;-145.63;61.39;39417.34;5041250;28;20080;-69
2023/10/20 00:20:12;;;;;;;38.90;26.35;;;;;;;-145.63;60.81;39388.00;5040869;28;20026;-70
2023/10/20 00:22:38;;;;;;;38.78;25.70;;;;;;;-145.63;61.11;39368.44;5039679;28;20044;-69
2023/10/20 00:25:04;;;;;;;39.60;27.55;;;;;;;-145.63;61.23;39376.28;5045704;28;20053;-69
2023/10/20 00:27:31;;;;;;;39.03;26.33;;;;;;;-145.63;60.99;39364.53;5045501;28;20072;-68
2023/10/20 00:29:57;;;;;;;36.38;24.25;;;;;;;-145.63;60.49;39393.88;5045613;28;20029;-68
2023/10/20 00:32:23;;;;;;;38.60;26.30;;;;;;;-145.63;60.46;39376.28;5045433;28;20241;-68
2023/10/20 00:34:48;;;;;;;38.75;26.65;;;;;;;-145.63;61.06;39403.66;5043719;28;20060;-68
2023/10/20 00:37:14;;;;;;;36.33;25.98;;;;;;;-145.63;60.95;39366.50;5045147;28;20217;-68
2023/10/20 00:39:40;;;;;;;40.53;26.48;;;;;;;-145.63;61.38;39395.84;5045234;28;20033;-69
2023/10/20 00:42:05;;;;;;;37.97;25.40;;;;;;;-145.63;61.46;39376.28;5045529;28;20033;-69
2023/10/20 00:44:31;;;;;;;34.83;23.23;;;;;;;-145.63;61.50;39380.19;5045291;28;20314;-68
2023/10/20 00:46:57;;;;;;;37.03;24.95;;;;;;;-145.63;61.23;39368.44;5045203;28;20088;-68
2023/10/20 00:49:23;;;;;;;33.92;22.88;;;;;;;-145.63;61.40;39380.19;5044890;28;20029;-69
2023/10/20 00:51:49;;;;;;;32.92;23.42;;;;;;;-145.63;60.46;39372.34;5044944;28;20140;-68
2023/10/20 00:54:15;;;;;;;30.15;21.67;;;;;;;-145.63;61.01;39380.19;5045218;28;20052;-68
2023/10/20 00:56:45;;;;;;;34.17;22.30;;;;;;;-145.63;60.83;39378.22;5045002;28;20059;-68
2023/10/20 00:59:11;;;;;;;33.25;22.63;;;;;;;-145.63;60.82;39409.53;5045163;28;20368;-68
2023/10/20 01:01:37;;;;;;;36.25;24.10;;;;;;;-145.63;60.69;39397.78;5044818;28;20033;-68
2023/10/20 01:04:04;;;;;;;31.17;22.35;;;;;;;-145.63;60.75;39364.53;5045072;28;20084;-68
2023/10/20 01:06:31;;;;;;;29.98;20.73;;;;;;;-145.63;61.14;39442.78;5044919;28;20025;-68
2023/10/20 01:08:57;;;;;;;27.58;21.02;;;;;;;-145.63;60.79;39419.31;5045002;28;20048;-68
2023/10/20 01:11:24;;;;;;;27.02;19.45;;;;;;;-145.63;60.94;39442.78;5044621;28;20025;-68
2023/10/20 01:13:50;;;;;;;24.88;19.13;;;;;;;-145.63;61.27;39540.56;5044621;28;20041;-69
2023/10/20 01:16:16;;;;;;;26.27;18.58;;;;;;;-145.63;60.77;39399.75;5038003;28;20037;-67
2023/10/20 01:18:43;;;;;;;30.75;19.65;;;;;;;-145.63;60.88;39391.91;5031828;28;20048;-67
2023/10/20 01:21:09;;;;;;;26.02;18.10;;;;;;;-145.63;60.42;39399.75;5044542;28;20032;-68
2023/10/20 01:23:35;;;;;;;18.55;13.02;;;;;;;-145.63;59.46;39391.91;5044150;28;20037;-68
2023/10/20 01:26:02;;;;;;;17.33;13.18;;;;;;;-145.63;60.10;39395.84;5044518;28;20068;-67
2023/10/20 01:28:27;;;;;;;26.55;18.83;;;;;;;-145.63;59.46;39368.44;5044454;28;20036;-68
2023/10/20 01:30:53;;;;;;;18.83;13.95;;;;;;;-145.63;60.09;39380.19;5044556;28;20036;-68
2023/10/20 01:33:19;;;;;;;18.15;13.07;;;;;;;-145.63;58.94;39405.59;5043862;28;20052;-68
2023/10/20 01:35:45;;;;;;;25.13;19.80;;;;;;;-145.63;58.30;39380.19;5044113;28;20214;-68
2023/10/20 01:38:10;;;;;;;24.77;19.15;;;;;;;-145.63;59.11;39399.75;5044134;28;20025;-68
2023/10/20 01:40:36;;;;;;;13.98;10.30;;;;;;;-145.63;58.45;39386.06;5044234;28;20041;-69
2023/10/20 01:43:01;;;;;;;17.02;10.60;;;;;;;-145.63;59.10;39401.69;5044183;28;20048;-69
2023/10/20 01:45:28;;;;;;;14.27;9.13;;;;;;;-145.63;59.25;39376.28;5043506;28;20021;-69
2023/10/20 01:47:55;;;;;;;17.15;11.07;;;;;;;-145.63;59.63;39364.53;5043946;28;20060;-69
2023/10/20 01:50:21;;;;;;;20.60;13.20;;;;;;;-145.63;60.01;39391.91;5043918;28;20087;-68
2023/10/20 01:52:46;;;;;;;19.58;13.27;;;;;;;-145.63;60.45;39382.13;5043961;28;20053;-68
2023/10/20 01:55:12;;;;;;;22.48;13.60;;;;;;;-145.63;60.59;39380.19;5043843;28;20036;-68
2023/10/20 01:57:37;;;;;;;16.88;12.88;;;;;;;-145.63;60.74;39372.34;5043303;28;20107;-68
2023/10/20 02:00:07;;;;;;;18.33;14.00;;;;;;;-145.63;61.43;39378.22;5042603;28;20021;-69
2023/10/20 02:02:33;;;;;;;22.77;14.52;;;;;;;-145.63;60.55;39393.88;5043824;28;20022;-69
2023/10/20 02:04:59;;;;;;;22.35;16.23;;;;;;;-145.63;61.27;39411.47;5043821;28;20044;-69
2023/10/20 02:07:24;;;;;;;24.55;16.58;;;;;;;-145.63;61.37;39382.13;5043323;28;20022;-69
2023/10/20 02:09:50;;;;;;;23.83;17.23;;;;;;;-145.63;61.23;39370.41;5043596;28;20029;-70
2023/10/20 02:12:16;;;;;;;20.23;15.40;;;;;;;-145.63;60.98;39370.41;5043687;28;20025;-70
2023/10/20 02:14:41;;;;;;;20.70;15.27;;;;;;;-145.63;61.13;39358.66;5043618;28;20269;-69
2023/10/20 02:17:07;;;;;;;17.95;13.13;;;;;;;-145.63;60.92;39370.41;5043476;28;20067;-68
2023/10/20 02:19:33;;;;;;;18.83;13.27;;;;;;;-145.63;60.98;39380.19;5042611;28;20029;-68
2023/10/20 02:22:01;;;;;;;19.52;14.45;;;;;;;-145.63;61.15;39376.28;5043280;28;20029;-69
2023/10/20 02:24:27;;;;;;;16.30;12.80;;;;;;;-145.63;61.04;39395.84;5043184;28;20025;-70
2023/10/20 02:26:53;;;;;;;17.95;13.70;;;;;;;-145.63;60.92;39409.53;5043420;28;20048;-70
2023/10/20 02:29:18;;;;;;;15.55;12.15;;;;;;;-145.63;60.90;39391.91;5042968;28;20136;-70
2023/10/20 02:31:44;;;;;;;16.63;12.23;;;;;;;-145.63;60.57;39407.56;5043253;28;20040;-68
2023/10/20 02:34:11;;;;;;;13.80;11.75;;;;;;;-145.63;60.65;39384.09;5043135;28;20052;-68
2023/10/20 02:36:37;;;;;;;15.52;12.60;;;;;;;-145.63;60.59;39368.44;5043467;28;20029;-69
2023/10/20 02:39:02;;;;;;;18.42;12.88;;;;;;;-145.63;61.07;39384.09;5043085;28;20055;-68
2023/10/20 02:41:31;;;;;;;15.48;12.18;;;;;;;-145.63;60.77;39395.84;5034271;28;20861;-69
2023/10/20 02:43:56;;;;;;;20.08;14.68;;;;;;;-145.63;60.75;39386.06;5039080;28;20025;-68
2023/10/20 02:46:22;;;;;;;15.45;12.30;;;;;;;-145.63;60.91;39372.34;5024540;28;20025;-69
2023/10/20 02:48:48;;;;;;;18.55;13.25;;;;;;;-145.63;61.27;39384.09;5042746;28;20033;-68
2023/10/20 02:51:17;;;;;;;18.40;13.95;;;;;;;-145.63;61.07;39434.94;5042845;28;20039;-68
2023/10/20 02:53:43;;;;;;;17.42;12.80;;;;;;;-145.63;61.50;39380.19;5043367;28;20049;-68
2023/10/20 02:56:16;;;;;;;17.02;12.95;;;;;;;-145.63;61.21;39372.34;5042871;28;20040;-69
2023/10/20 02:58:43;;;;;;;16.55;12.48;;;;;;;-145.63;61.75;39395.84;5042868;28;20096;-69
2023/10/20 03:01:10;;;;;;;15.95;11.95;;;;;;;-145.63;61.54;39376.28;5042677;28;20056;-69
2023/10/20 03:03:36;;;;;;;17.90;13.10;;;;;;;-145.63;61.22;39393.88;5042733;28;20325;-69
2023/10/20 03:06:04;;;;;;;17.17;13.00;;;;;;;-145.63;61.36;39389.97;5041694;28;20025;-69
2023/10/20 03:08:30;;;;;;;17.73;13.77;;;;;;;-145.63;61.12;39403.66;5042600;28;20029;-67
2023/10/20 03:10:59;;;;;;;20.70;14.77;;;;;;;-145.63;61.47;39407.56;5042699;28;20033;-68
2023/10/20 03:13:25;;;;;;;20.80;14.40;;;;;;;-145.63;61.25;39395.84;5042388;28;20036;-68
2023/10/20 03:15:51;;;;;;;16.95;12.90;;;;;;;-145.63;61.46;39391.91;5042950;28;20097;-67
2023/10/20 03:18:17;;;;;;;20.60;13.85;;;;;;;-145.63;61.73;39380.19;5042083;28;20093;-68
2023/10/20 03:20:44;;;;;;;17.27;12.70;;;;;;;-145.63;61.67;39386.06;5042680;28;20044;-68
2023/10/20 03:23:10;;;;;;;20.63;16.30;;;;;;;-145.63;61.05;39376.28;5024803;28;20100;-68
2023/10/20 03:25:36;;;;;;;20.20;15.50;;;;;;;-145.63;60.75;39403.66;5042362;28;20044;-67
2023/10/20 03:28:03;;;;;;;23.83;17.35;;;;;;;-145.63;60.98;39423.22;5042467;28;20338;-68
2023/10/20 03:30:29;;;;;;;26.30;17.88;;;;;;;-145.63;61.19;39378.22;5042177;28;20325;-68
2023/10/20 03:32:55;;;;;;;27.25;20.40;;;;;;;-145.63;61.27;39341.06;5042633;28;20063;-67
2023/10/20 03:35:21;;;;;;;30.02;22.15;;;;;;;-145.63;61.33;39388.00;5042247;28;20384;-69
2023/10/20 03:37:56;;;;;;;29.38;22.08;;;;;;;-145.63;61.17;39395.84;5042434;28;20155;-68
2023/10/20 03:40:30;;;;;;;31.05;22.30;;;;;;;-145.63;61.10;39403.66;5042523;28;20029;-68
2023/10/20 03:42:59;;;;;;;29.13;22.00;;;;;;;-145.63;61.19;39417.34;5030043;28;20021;-68
2023/10/20 03:45:25;;;;;;;29.58;21.85;;;;;;;-145.63;60.59;39386.06;5042324;28;20325;-69
2023/10/20 03:47:53;;;;;;;29.20;22.65;;;;;;;-145.63;61.08;39401.69;5042374;28;20033;-69
2023/10/20 03:50:19;;;;;;;35.67;24.77;;;;;;;-145.63;60.86;39391.91;5042377;28;20029;-68
2023/10/20 03:52:48;;;;;;;32.15;23.58;;;;;;;-145.63;60.85;39415.38;5042457;28;20049;-68
2023/10/20 03:55:15;;;;;;;32.75;23.92;;;;;;;-145.63;61.02;39386.06;5041791;28;20214;-69
2023/10/20 03:57:41;;;;;;;34.33;24.80;;;;;;;-145.63;60.94;39384.09;5045051;28;20090;-69
2023/10/20 04:00:20;;;;;;;29.77;24.05;;;;;;;-145.63;61.38;39386.06;5045474;28;20060;-69
2023/10/20 04:02:47;;;;;;;36.30;24.67;;;;;;;-145.63;61.10;39421.25;5044520;28;20431;-66
2023/10/20 04:05:14;;;;;;;32.47;24.08;;;;;;;-145.63;61.38;39384.09;5045495;28;20056;-67
2023/10/20 04:07:41;;;;;;;30.15;22.85;;;;;;;-145.63;61.13;39397.78;5046126;28;20036;-66
2023/10/20 04:10:06;;;;;;;33.42;23.65;;;;;;;-145.63;61.36;39389.97;5045796;28;20044;-66
2023/10/20 04:12:32;;;;;;;32.83;24.42;;;;;;;-145.63;61.63;39389.97;5045820;28;20222;-66
2023/10/20 04:14:58;;;;;;;29.08;23.65;;;;;;;-145.63;61.33;39413.44;5046008;28;20034;-66
2023/10/20 04:17:23;;;;;;;31.80;23.52;;;;;;;-145.63;61.19;39384.09;5045389;28;20025;-67
2023/10/20 04:19:49;;;;;;;34.35;24.27;;;;;;;-145.63;61.54;39382.13;5045079;28;20075;-67
2023/10/20 04:22:16;;;;;;;31.65;23.73;;;;;;;-145.63;61.42;39378.22;5027827;28;20030;-67
2023/10/20 04:24:44;;;;;;;35.30;24.67;;;;;;;-145.63;61.19;39399.75;5045621;28;20033;-66
2023/10/20 05:08:19;;;;;;;22.48;16.90;;;;;;;-145.63;60.09;39388.00;5044273;28;20026;-70
2023/10/20 05:10:49;;;;;;;21.75;17.00;;;;;;;-145.63;60.00;39389.97;5043965;28;20052;-70
2023/10/20 05:13:14;;;;;;;;;;;;;;;-145.63;59.13;39391.91;5044610;28;20310;-70
2023/10/20 05:15:40;;;;;;;18.67;13.43;;;;;;;-145.63;59.21;39389.97;5043739;28;19912;-71
2023/10/20 05:18:11;;;;;;;13.98;11.57;;;;;;;-145.63;58.61;39415.38;5044080;28;20029;-69
2023/10/20 05:20:38;;;;;;;14.25;10.23;;;;;;;-145.63;58.84;39407.56;5044134;28;20322;-69
2023/10/20 05:23:05;;;;;;;17.02;11.18;;;;;;;-145.63;58.63;39376.28;5044066;28;20048;-69
2023/10/20 05:25:31;;;;;;;13.15;11.45;;;;;;;-145.63;59.26;39425.16;5043701;28;20037;-70
2023/10/20 05:27:56;;;;;;;19.60;13.93;;;;;;;-145.63;59.35;39368.44;5043809;28;20033;-70
2023/10/20 05:30:22;;;;;;;14.43;11.85;;;;;;;-145.63;59.15;39397.78;5044097;28;20025;-70
2023/10/20 05:32:48;;;;;;;18.08;14.07;;;;;;;-145.63;59.86;39419.31;5044369;28;20151;-71
2023/10/20 05:35:13;;;;;;;15.48;12.75;;;;;;;-145.63;59.90;39407.56;5042914;28;20336;-71
2023/10/20 05:37:39;;;;;;;12.85;9.90;;;;;;;-145.63;59.03;39393.88;5043589;28;20036;-71
2023/10/20 05:40:05;;;;;;;13.25;10.30;;;;;;;-145.63;59.30;39411.47;5044077;28;20272;-70
2023/10/20 05:42:31;;;;;;;12.95;9.65;;;;;;;-145.63;59.24;39372.34;5029144;28;20275;-70
2023/10/20 05:45:09;;;;;;;10.90;8.73;;;;;;;-145.63;59.20;39380.19;5044104;28;20040;-70
2023/10/20 05:47:38;;;;;;;9.27;7.82;;;;;;;-145.63;59.44;39405.59;5044062;28;20029;-69
2023/10/20 05:50:05;;;;;;;9.18;7.32;;;;;;;-145.63;59.30;39380.19;5043711;28;20044;-69
2023/10/20 05:52:33;;;;;;;7.78;6.97;;;;;;;-145.63;59.94;39407.56;5042352;28;20253;-68
2023/10/20 05:54:59;;;;;;;7.32;6.20;;;;;;;-145.63;59.30;39388.00;5043675;28;20068;-72
2023/10/20 05:57:26;;;;;;;5.60;4.90;;;;;;;-145.63;58.88;39399.75;5043609;28;20306;-69
2023/10/20 05:59:52;;;;;;;6.82;4.95;;;;;;;-145.63;59.15;39388.00;5043990;28;20029;-72
2023/10/20 06:02:18;;;;;;;6.72;5.05;;;;;;;-145.63;59.80;39399.75;5043256;28;20029;-69
2023/10/20 06:04:43;;;;;;;6.97;5.10;;;;;;;-145.63;59.61;39378.22;5043601;28;20341;-74
2023/10/20 06:07:09;;;;;;;7.85;4.93;;;;;;;-145.63;59.14;39399.75;5043896;28;20026;-71
2023/10/20 06:09:35;;;;;;;4.63;3.80;;;;;;;-145.63;58.88;39395.84;5043222;28;20026;-71
2023/10/20 06:12:01;;;;;;;5.88;3.83;;;;;;;-145.63;58.78;39384.09;5043265;28;20029;-68
2023/10/20 06:14:27;;;;;;;5.57;4.60;;;;;;;-145.63;59.09;39386.06;5042600;28;20026;-69
2023/10/20 06:16:53;;;;;;;4.18;3.45;;;;;;;-145.63;58.86;39380.19;5043366;28;20025;-70
2023/10/20 06:19:19;;;;;;;5.22;3.63;;;;;;;-145.63;59.50;39391.91;5041108;28;20022;-70
2023/10/20 06:21:46;;;;;;;3.75;3.38;;;;;;;-145.63;59.38;39391.91;5041503;28;20298;-70
2023/10/20 06:24:12;;;;;;;4.32;3.65;;;;;;;-145.63;59.63;39378.22;5042475;28;20052;-70
2023/10/20 06:26:38;;;;;;;3.65;3.30;;;;;;;-145.63;59.23;39366.50;5043135;28;20328;-69
2023/10/20 06:29:56;;;;;;;4.88;3.10;;;;;;;-145.63;58.77;39386.06;5041628;28;20025;-70
2023/10/20 06:34:36;;;;;;;4.07;3.67;;;;;;;-145.63;58.27;39419.31;5042796;28;20332;-71
2023/10/20 06:37:08;;;;;;;5.63;4.30;;;;;;;-145.63;58.77;39405.59;5042838;28;20056;-71
2023/10/20 06:39:38;;;;;;;4.40;4.00;;;;;;;-145.63;59.38;39386.06;5042802;28;20071;-70
2023/10/20 06:42:06;;;;;;;5.53;3.88;;;;;;;-145.63;59.07;39534.69;5029058;28;20033;-71
2023/10/20 06:44:34;;;;;;;4.50;4.00;;;;;;;-145.63;58.60;39497.53;5041110;28;20087;-71
2023/10/20 06:47:00;;;;;;;4.75;3.88;;;;;;;-145.63;58.88;39544.47;5042685;28;20306;-72
2023/10/20 06:49:26;;;;;;;3.92;3.53;;;;;;;-145.63;58.88;39399.75;5042652;28;20043;-72
2023/10/20 06:51:52;;;;;;;4.88;4.10;;;;;;;-145.63;59.16;39399.75;5041563;28;20033;-72
2023/10/20 06:54:18;;;;;;;5.30;4.15;;;;;;;-145.63;59.19;39399.75;5032920;28;20369;-71
2023/10/20 06:56:44;;;;;;;5.35;4.68;;;;;;;-145.63;59.71;39374.31;5043177;28;20029;-70
2023/10/20 06:59:20;;;;;;;6.22;4.07;;;;;;;-145.63;59.86;39384.09;5042954;28;20103;-70
2023/10/20 07:01:45;;;;;;;5.05;4.55;;;;;;;-145.63;59.72;39399.75;5042750;28;20033;-71
2023/10/20 07:04:12;;;;;;;5.25;4.75;;;;;;;-145.63;60.03;39415.38;5042468;28;20234;-71
2023/10/20 07:06:38;;;;;;;5.50;5.00;;;;;;;-145.63;60.54;39376.28;5041490;28;20037;-71
2023/10/20 07:09:11;;;;;;;6.32;5.70;;;;;;;-145.63;60.74;39405.59;5042318;28;20158;-70
2023/10/20 07:11:42;;;;;;;6.60;5.82;;;;;;;-145.63;61.00;39411.47;5042611;28;20026;-71
2023/10/20 07:14:08;;;;;;;6.55;5.40;;;;;;;-145.63;60.86;39388.00;5042546;28;20322;-72
2023/10/20 07:16:34;;;;;;;7.25;5.63;;;;;;;-145.63;61.27;39384.09;5042124;28;20039;-70
2023/10/20 07:19:01;;;;;;;6.85;6.15;;;;;;;-145.63;60.86;39413.44;5041907;28;20056;-69
2023/10/20 07:21:27;;;;;;;7.30;6.13;;;;;;;-145.63;61.27;39380.19;5041637;28;20033;-69
2023/10/20 07:23:52;;;;;;;7.93;7.00;;;;;;;-145.63;61.34;39374.31;5042395;28;20301;-70
2023/10/20 07:26:18;;;;;;;8.00;6.90;;;;;;;-145.63;61.28;39413.44;5042461;28;20379;-71
2023/10/20 07:28:45;;;;;;;7.80;7.00;;;;;;;-145.63;62.02;39405.59;5042694;28;20242;-71
2023/10/20 07:31:21;;;;;;;7.60;6.82;;;;;;;-145.63;61.79;39399.75;5042914;28;20310;-71
2023/10/20 07:33:49;;;;;;;8.35;7.43;;;;;;;-145.63;61.91;39393.88;5044501;28;20032;-70
2023/10/20 07:36:16;;;;;;;8.02;7.20;;;;;;;-145.63;61.78;39505.34;5045629;28;20033;-70
2023/10/20 07:38:43;;;;;;;7.18;6.45;;;;;;;-145.63;61.76;39382.13;5045483;28;20083;-71
2023/10/20 07:41:11;;;;;;;7.82;6.85;;;;;;;-145.63;61.66;39376.28;5045283;28;20130;-70
2023/10/20 07:43:38;;;;;;;8.07;7.10;;;;;;;-145.63;61.98;39386.06;5046164;28;20041;-68
2023/10/20 07:46:04;;;;;;;9.02;6.60;;;;;;;-145.63;61.46;39397.78;5045934;28;20041;-71
2023/10/20 07:48:32;;;;;;;9.50;7.43;;;;;;;-145.63;61.70;39393.88;5045417;28;20102;-69
2023/10/20 07:51:02;;;;;;;8.45;6.68;;;;;;;-145.63;61.21;39397.78;5045883;28;20424;-69
2023/10/20 07:53:29;;;;;;;8.02;7.10;;;;;;;-145.63;61.18;39360.63;5045653;28;20175;-68
2023/10/20 07:55:55;;;;;;;7.50;6.80;;;;;;;-145.63;60.50;39464.28;5045631;28;20060;-70
2023/10/20 07:58:21;;;;;;;9.27;6.03;;;;;;;-145.63;60.19;39395.84;5045553;28;20096;-69
2023/10/20 08:00:47;;;;;;;6.78;6.07;;;;;;;-145.63;60.82;39382.13;5046054;28;20084;-67
2023/10/20 08:03:13;;;;;;;7.70;6.35;;;;;;;-145.63;60.47;39341.06;5044976;28;20025;-71
2023/10/20 08:05:39;;;;;;;9.15;7.07;;;;;;;-145.63;60.37;39389.97;5044762;28;20090;-69
2023/10/20 08:08:06;;;;;;;10.88;8.07;;;;;;;-145.63;60.42;39405.59;5045657;28;20462;-69
2023/10/20 08:10:35;;;;;;;11.40;8.68;;;;;;;-145.63;60.33;39393.88;5045503;28;20079;-69
2023/10/20 08:13:02;;;;;;;9.23;8.23;;;;;;;-145.63;60.42;39374.31;5045412;28;20041;-69
2023/10/20 08:15:28;;;;;;;10.20;8.75;;;;;;;-145.63;60.28;39403.66;5044803;28;20083;-70
2023/10/20 08:17:57;;;;;;;10.65;8.45;;;;;;;-145.63;60.42;39388.00;5041527;28;20026;-71
2023/10/20 08:20:23;;;;;;;9.88;8.35;;;;;;;-145.63;60.17;39386.06;5044055;28;20029;-70
2023/10/20 08:22:49;;;;;;;10.93;8.32;;;;;;;-145.63;60.60;39380.19;5045027;28;20021;-70
2023/10/20 08:25:15;;;;;;;11.10;9.18;;;;;;;-145.63;61.02;39395.84;5045010;28;20238;-71
2023/10/20 08:27:42;;;;;;;16.95;10.40;;;;;;;-145.63;61.36;39389.97;5044879;28;20017;-70
2023/10/20 08:30:08;;;;;;;12.73;11.02;;;;;;;-145.63;61.36;39366.50;5045834;28;20025;-69
2023/10/20 08:32:34;;;;;;;15.07;11.10;;;;;;;-145.63;61.48;39395.84;5044491;28;20139;-70
2023/10/20 08:35:00;;;;;;;37.25;13.40;;;;;;;-145.63;61.48;39384.09;5045081;28;20088;-71
2023/10/20 08:37:26;;;;;;;40.47;14.65;;;;;;;-145.63;61.52;39389.97;5045359;28;20198;-70
2023/10/20 08:39:54;;;;;;;16.42;11.55;;;;;;;-145.63;61.62;39384.09;5045289;28;20332;-69
2023/10/20 08:42:21;;;;;;;14.43;11.05;;;;;;;-145.63;62.10;39388.00;5044644;28;20377;-69
2023/10/20 08:44:48;;;;;;;15.50;11.77;;;;;;;-145.63;61.96;39391.91;5039274;28;20355;-68
2023/10/20 08:47:16;;;;;;;17.85;12.38;;;;;;;-145.63;61.87;39405.59;5043106;28;20029;-67
2023/10/20 08:49:46;;;;;;;21.42;14.07;;;;;;;-145.63;61.69;39407.56;5044616;28;20287;-68
2023/10/20 08:52:13;;;;;;;16.25;13.35;;;;;;;-145.63;61.71;39388.00;5044615;28;20132;-69
2023/10/20 08:54:39;;;;;;;15.57;12.20;;;;;;;-145.63;61.11;39444.72;5044805;28;20030;-68
2023/10/20 08:57:06;;;;;;;31.38;14.63;;;;;;;-145.63;61.69;39411.47;5045376;28;20028;-69
2023/10/20 08:59:35;;;;;;;17.35;12.77;;;;;;;-145.63;61.45;39391.91;5044709;28;20357;-70
2023/10/20 09:02:01;;;;;;;22.50;13.18;;;;;;;-145.63;61.81;38666.38;5044533;28;20025;-69
2023/10/20 09:04:27;;;;;;;18.00;13.20;;;;;;;-145.63;61.65;39382.13;5044106;28;20076;-68
2023/10/20 09:06:53;;;;;;;16.35;13.27;;;;;;;-145.63;61.90;39374.31;5044292;28;20049;-69
2023/10/20 09:09:20;;;;;;;24.17;14.70;;;;;;;-145.63;62.15;39434.94;5028117;28;20040;-69
2023/10/20 09:11:47;;;;;;;14.25;12.23;;;;;;;-145.63;61.86;39433.00;5044859;28;20025;-68
2023/10/20 09:14:14;;;;;;;17.17;12.43;;;;;;;-145.63;61.60;39389.97;5043900;28;20048;-68
2023/10/20 09:16:45;;;;;;;13.80;12.35;;;;;;;-145.63;61.44;39380.19;5044525;28;20048;-68
2023/10/20 09:19:11;;;;;;;13.55;10.57;;;;;;;-145.63;61.11;39388.00;5044383;28;20036;-69
2023/10/20 09:21:41;;;;;;;13.95;11.15;;;;;;;-145.63;61.23;39391.91;5035487;28;20061;-68
2023/10/20 09:24:09;;;;;;;17.05;11.25;;;;;;;-145.63;60.94;39386.06;5043197;28;20029;-68
2023/10/20 09:26:38;;;;;;;11.93;10.73;;;;;;;-145.63;60.21;39472.09;5044261;28;20352;-69
2023/10/20 09:29:07;;;;;;;12.52;11.15;;;;;;;-145.63;60.32;39372.34;5044422;28;20029;-67
2023/10/20 09:31:35;;;;;;;12.63;11.32;;;;;;;-145.63;59.99;39370.41;5044241;28;20124;-69
2023/10/20 09:34:02;;;;;;;16.63;12.02;;;;;;;-145.63;60.00;39380.19;5042948;28;20025;-68
2023/10/20 09:36:32;;;;;;;13.90;11.00;;;;;;;-145.63;60.37;39405.59;5042975;28;20025;-70
2023/10/20 09:38:59;;;;;;;13.40;12.02;;;;;;;-145.63;59.90;39364.53;5044259;28;20242;-68
2023/10/20 09:41:28;;;;;;;13.82;11.13;;;;;;;-145.63;60.19;39444.72;5042973;28;20021;-69
2023/10/20 09:44:00;;;;;;;11.95;10.75;;;;;;;-145.63;59.80;39405.59;5043827;28;20281;-68
2023/10/20 09:46:49;;;;;;;;;;;;;;;-145.63;59.94;39354.75;5044351;28;20025;-70
2023/10/20 09:49:19;;;;;;;11.98;10.60;;;;;;;-145.63;59.65;39380.19;5017202;28;19913;-70
2023/10/20 09:51:46;;;;;;;12.07;10.23;;;;;;;-145.63;59.82;39352.81;5043845;28;20033;-69
2023/10/20 09:54:13;;;;;;;11.75;8.93;;;;;;;-145.63;59.55;39374.31;5043429;28;20026;-70
2023/10/20 09:56:44;;;;;;;13.52;9.80;;;;;;;-145.63;59.82;39411.47;5043430;28;20033;-71
2023/10/20 09:59:16;;;;;;;9.40;8.45;;;;;;;-145.63;59.69;39413.44;5043767;28;20026;-69
2023/10/20 10:01:43;;;;;;;14.18;9.40;;;;;;;-145.63;59.42;39391.91;5041896;28;20351;-69
2023/10/20 10:04:10;;;;;;;10.93;9.40;;;;;;;-145.63;59.30;39395.84;5043363;28;20293;-68
2023/10/20 10:06:37;;;;;;;9.95;8.23;;;;;;;-145.63;58.98;39378.22;5043160;28;20032;-69
2023/10/20 10:09:05;;;;;;;8.30;7.32;;;;;;;-145.63;60.15;39413.44;5042765;28;20021;-69
2023/10/20 10:11:37;;;;;;;9.82;8.55;;;;;;;-145.63;59.62;39438.84;5043081;28;20364;-70
2023/10/20 10:14:07;;;;;;;8.63;7.45;;;;;;;-145.63;59.86;39391.91;5043420;28;20033;-69
2023/10/20 10:16:54;;;;;;;9.30;8.25;;;;;;;-145.63;60.13;38521.69;5043046;28;20092;-69
2023/10/20 10:19:25;;;;;;;8.73;7.82;;;;;;;-145.63;60.74;39374.31;5043368;28;20183;-68
2023/10/20 10:21:56;;;;;;;9.57;8.40;;;;;;;-145.63;61.02;39382.13;5043164;28;20029;-69
2023/10/20 10:24:25;;;;;;;10.65;8.52;;;;;;;-145.63;61.42;39344.97;5043350;28;20033;-69
2023/10/20 10:26:57;;;;;;;9.65;8.63;;;;;;;-145.63;61.30;39415.38;5043446;28;20029;-69
2023/10/20 10:30:05;;;;;;;10.88;9.02;;;;;;;-145.63;61.46;39378.22;5043288;28;20049;-68
2023/10/20 10:32:41;;;;;;;10.95;9.02;;;;;;;-145.63;61.27;39368.44;5043468;28;20089;-67
2023/10/20 10:35:08;;;;;;;9.68;8.45;;;;;;;-145.63;61.24;39380.19;5043375;28;20214;-68
2023/10/20 10:37:37;;;;;;;10.30;8.73;;;;;;;-145.63;61.22;39329.34;5043021;28;20037;-69
2023/10/20 10:40:10;;;;;;;10.57;8.07;;;;;;;-145.63;61.27;39344.97;5043342;28;20056;-68
2023/10/20 10:42:46;;;;;;;9.18;8.20;;;;;;;-145.63;60.90;39348.88;5043165;28;20041;-68
2023/10/20 10:45:16;;;;;;;8.55;7.65;;;;;;;-145.63;60.61;39352.81;5043206;28;20048;-68
2023/10/20 10:47:42;;;;;;;9.65;8.10;;;;;;;-145.63;60.59;39346.94;5042938;28;20044;-68
2023/10/20 10:50:08;;;;;;;8.77;7.88;;;;;;;-145.63;59.91;39370.41;5042627;28;20029;-69
2023/10/20 10:52:34;;;;;;;8.18;7.38;;;;;;;-145.63;60.25;39364.53;5042776;28;20073;-69
2023/10/20 10:54:59;;;;;;;7.95;6.95;;;;;;;-145.63;59.86;39346.94;5042904;28;20037;-69
2023/10/20 10:57:25;;;;;;;9.30;7.72;;;;;;;-145.63;60.04;39176.78;5042617;28;20024;-69
2023/10/20 10:59:51;;;;;;;8.98;7.68;;;;;;;-145.63;59.94;39350.84;5042870;28;20021;-67
2023/10/20 11:02:17;;;;;;;8.70;7.47;;;;;;;-145.63;59.41;39335.19;5042323;28;20044;-68
2023/10/20 11:04:43;;;;;;;10.40;7.45;;;;;;;-145.63;59.53;39329.34;5043059;28;20033;-68
2023/10/20 11:07:12;;;;;;;8.85;7.47;;;;;;;-145.63;59.64;39372.34;5042077;28;20053;-68
2023/10/20 11:09:39;;;;;;;7.63;6.72;;;;;;;-145.63;58.82;39348.88;5042671;28;20243;-68
2023/10/20 11:12:09;;;;;;;8.25;6.55;;;;;;;-145.63;59.36;39337.16;5042561;28;20025;-69
2023/10/20 11:14:38;;;;;;;10.60;8.23;;;;;;;-145.63;59.92;39388.00;5042634;28;20058;-68
2023/10/20 11:17:04;;;;;;;8.77;7.10;;;;;;;-145.63;58.80;39372.34;5042742;28;20285;-68
2023/10/20 11:19:30;;;;;;;7.93;6.97;;;;;;;-145.63;59.15;39370.41;5042482;28;20025;-68
2023/10/20 11:21:56;;;;;;;9.75;7.20;;;;;;;-145.63;58.92;39407.56;5032918;28;20029;-69
2023/10/20 11:24:31;;;;;;;8.00;6.97;;;;;;;-145.63;59.28;39421.25;5042318;28;20053;-69
2023/10/20 11:27:01;;;;;;;10.02;8.05;;;;;;;-145.63;59.06;39395.84;5042486;28;20021;-67
2023/10/20 11:29:32;;;;;;;9.05;7.60;;;;;;;-145.63;59.16;39405.59;5042059;28;20025;-68
2023/10/20 11:32:08;;;;;;;11.48;8.52;;;;;;;-145.63;59.28;39431.03;5042370;28;20025;-67
2023/10/20 11:34:35;;;;;;;8.88;7.55;;;;;;;-145.63;59.12;39393.88;5042335;28;20041;-69
2023/10/20 11:37:02;;;;;;;9.73;8.27;;;;;;;-145.63;59.52;39405.59;5042144;28;20108;-69
2023/10/20 11:39:29;;;;;;;8.45;7.57;;;;;;;-145.63;59.55;39423.22;5042111;28;20030;-69
2023/10/20 11:41:55;;;;;;;9.07;7.93;;;;;;;-145.63;59.31;39399.75;5042165;28;20096;-68
2023/10/20 11:44:24;;;;;;;9.10;7.75;;;;;;;-145.63;59.17;39388.00;5041844;28;20083;-69
2023/10/20 11:46:52;;;;;;;8.88;7.97;;;;;;;-145.63;59.81;39388.00;5042087;28;20266;-68
2023/10/20 11:49:19;;;;;;;8.65;7.15;;;;;;;-145.63;59.42;39384.09;5042315;28;20315;-69
2023/10/20 11:51:44;;;;;;;9.93;7.40;;;;;;;-145.63;59.34;39419.31;5041936;28;20097;-68